Time;durP1;ratioP1;P1;durP2;ratioP2;P2;SDS_P1;SDS_P2;PMS_P1;PMS_P2;Temp;Humidity;BMP_temperature;BMP_pressure;BME280_temperature;BME280_humidity;BME280_pressure;Samples;Min_cycle;Max_cycle;Signal;HPM_P1;HPM_P2
2023/05/01 00:01:05;;;;;;;21.03;14.77;;;;;;;4.86;100.00;102035.94;5041040;28;20988;-42
2023/05/01 00:03:32;;;;;;;22.20;18.27;;;;;;;4.82;100.00;102029.22;5038005;28;20835;-43
2023/05/01 00:06:02;;;;;;;16.57;14.50;;;;;;;4.77;100.00;102026.13;5037175;28;20440;-42
2023/05/01 00:08:31;;;;;;;16.50;14.80;;;;;;;4.75;100.00;102019.31;5037274;28;20452;-46
2023/05/01 00:11:03;;;;;;;22.00;16.63;;;;;;;4.71;100.00;102016.06;5037867;28;20459;-45
2023/05/01 00:13:30;;;;;;;21.20;17.07;;;;;;;4.70;100.00;102006.47;5037550;28;20439;-43
2023/05/01 00:15:58;;;;;;;19.80;15.57;;;;;;;4.68;100.00;102015.47;5036849;28;20435;-43
2023/05/01 00:18:26;;;;;;;19.27;15.60;;;;;;;4.65;100.00;102010.44;5030009;28;20467;-42
2023/05/01 00:20:53;;;;;;;18.37;15.83;;;;;;;4.61;100.00;102004.56;5037023;28;20898;-43
2023/05/01 00:23:21;;;;;;;22.43;16.20;;;;;;;4.60;100.00;102002.88;5037160;28;20432;-41
2023/05/01 00:25:50;;;;;;;19.23;17.13;;;;;;;4.56;100.00;102001.50;5048192;28;20470;-44
2023/05/01 00:28:18;;;;;;;23.40;17.43;;;;;;;4.54;100.00;101992.84;5046420;28;20460;-42
2023/05/01 00:30:46;;;;;;;20.87;17.83;;;;;;;4.52;100.00;101991.28;5037400;28;20452;-41
2023/05/01 00:33:14;;;;;;;18.57;16.13;;;;;;;4.51;100.00;101984.34;5037115;28;20486;-44
2023/05/01 00:35:43;;;;;;;16.83;14.87;;;;;;;4.50;100.00;101990.59;5037697;28;20436;-44
2023/05/01 00:38:11;;;;;;;19.60;17.60;;;;;;;4.48;100.00;101982.78;5036597;28;20464;-42
2023/05/01 00:40:42;;;;;;;21.73;18.40;;;;;;;4.46;100.00;101974.16;5037103;28;20491;-43
2023/05/01 00:43:12;;;;;;;25.57;17.13;;;;;;;4.45;100.00;101969.81;5037050;28;20429;-47
2023/05/01 00:45:43;;;;;;;22.20;16.57;;;;;;;4.43;100.00;101980.53;5036734;28;20531;-49
2023/05/01 00:48:11;;;;;;;23.00;16.67;;;;;;;4.40;100.00;101972.84;5033842;28;20432;-45
2023/05/01 00:50:39;;;;;;;18.03;14.20;;;;;;;4.41;100.00;101968.41;5037129;28;20460;-42
2023/05/01 00:53:06;;;;;;;17.67;14.47;;;;;;;4.41;100.00;101966.63;5037002;28;20597;-44
2023/05/01 00:55:35;;;;;;;13.70;11.80;;;;;;;4.40;100.00;101962.28;5037634;28;20440;-42
2023/05/01 00:58:03;;;;;;;15.83;13.10;;;;;;;4.41;100.00;101966.63;5036536;28;20479;-44
2023/05/01 01:00:32;;;;;;;13.17;11.97;;;;;;;4.42;100.00;101957.72;5036424;28;20456;-46
2023/05/01 01:03:00;;;;;;;12.23;11.03;;;;;;;4.43;100.00;101961.19;5036071;28;20439;-42
2023/05/01 01:05:32;;;;;;;15.87;12.40;;;;;;;4.41;100.00;101953.41;5036372;28;20436;-42
2023/05/01 01:08:10;;;;;;;13.07;11.77;;;;;;;4.40;100.00;101959.66;5035222;28;20440;-41
2023/05/01 01:10:46;;;;;;;13.90;12.27;;;;;;;4.38;100.00;101952.81;5036762;28;20459;-42
2023/05/01 01:13:20;;;;;;;14.50;12.93;;;;;;;4.33;100.00;101952.38;5036177;28;20435;-42
2023/05/01 01:15:53;;;;;;;13.27;11.87;;;;;;;4.27;100.00;101947.59;5036239;28;20445;-44
2023/05/01 01:18:32;;;;;;;13.23;12.03;;;;;;;4.23;100.00;101954.94;5035407;28;20460;-41
2023/05/01 01:21:09;;;;;;;14.57;13.27;;;;;;;4.19;100.00;101952.66;5036140;28;21012;-42
2023/05/01 01:23:59;;;;;;;12.67;11.30;;;;;;;4.15;100.00;101949.41;5036011;28;20432;-42
2023/05/01 01:27:01;;;;;;;14.93;13.20;;;;;;;4.09;100.00;101943.84;5052311;28;20504;-44
2023/05/01 01:29:43;;;;;;;12.90;11.80;;;;;;;4.05;100.00;101937.97;5018245;28;20494;-42
2023/05/01 01:32:40;;;;;;;13.23;11.90;;;;;;;4.01;100.00;101946.22;5037276;28;20452;-42
2023/05/01 01:35:16;;;;;;;13.50;11.07;;;;;;;3.94;100.00;101935.38;5039910;28;20436;-42
2023/05/01 01:37:49;;;;;;;16.97;13.20;;;;;;;3.91;100.00;101938.25;5039509;28;20471;-44
2023/05/01 01:40:22;;;;;;;15.10;13.63;;;;;;;3.89;100.00;101937.50;5039013;28;20460;-46
2023/05/01 01:42:55;;;;;;;12.30;11.03;;;;;;;3.85;100.00;101929.00;5040199;28;20435;-42
2023/05/01 01:45:25;;;;;;;19.17;12.17;;;;;;;3.83;100.00;101933.56;5039915;28;20789;-43
2023/05/01 01:47:55;;;;;;;15.30;12.90;;;;;;;3.81;100.00;101924.97;5039563;28;20515;-43
2023/05/01 01:50:28;;;;;;;15.70;11.57;;;;;;;3.80;100.00;101923.28;5039570;28;20519;-43
2023/05/01 01:53:00;;;;;;;13.27;11.97;;;;;;;3.78;100.00;101925.19;5039502;28;20459;-45
2023/05/01 01:55:31;;;;;;;12.27;10.97;;;;;;;3.78;100.00;101912.00;5039735;28;20443;-44
2023/05/01 01:58:00;;;;;;;14.07;11.43;;;;;;;3.76;100.00;101916.56;5038797;28;20486;-43
2023/05/01 02:00:29;;;;;;;13.80;12.50;;;;;;;3.72;100.00;101915.16;5039016;28;20456;-45
2023/05/01 02:02:59;;;;;;;13.53;11.60;;;;;;;3.70;100.00;101921.50;5039209;28;20471;-43
2023/05/01 02:05:32;;;;;;;12.13;10.83;;;;;;;3.68;100.00;101907.59;5039243;28;20490;-44
2023/05/01 02:08:02;;;;;;;13.97;12.40;;;;;;;3.66;100.00;101913.00;5039262;28;20428;-44
2023/05/01 02:10:31;;;;;;;12.90;11.50;;;;;;;3.65;100.00;101907.84;5039571;28;20460;-43
2023/05/01 02:13:00;;;;;;;14.80;13.00;;;;;;;3.60;100.00;101902.09;5038802;28;20432;-46
2023/05/01 02:15:30;;;;;;;15.50;13.87;;;;;;;3.60;100.00;101899.47;5039542;28;20957;-43
2023/05/01 02:17:59;;;;;;;14.13;12.90;;;;;;;3.58;100.00;101896.13;5038014;28;20432;-45
2023/05/01 02:20:29;;;;;;;16.97;12.97;;;;;;;3.55;100.00;101896.38;5039000;28;20452;-44
2023/05/01 02:22:58;;;;;;;13.90;12.23;;;;;;;3.52;100.00;101891.34;5038520;28;20432;-42
2023/05/01 02:25:30;;;;;;;14.13;12.73;;;;;;;3.50;100.00;101885.31;5046530;28;20436;-43
2023/05/01 02:28:01;;;;;;;19.37;14.37;;;;;;;3.47;100.00;101886.41;5051147;28;20467;-43
2023/05/01 02:30:29;;;;;;;13.70;12.43;;;;;;;3.46;100.00;101883.91;5038414;28;20539;-44
2023/05/01 02:32:57;;;;;;;16.47;12.20;;;;;;;3.45;100.00;101883.06;5039086;28;20447;-42
2023/05/01 02:35:25;;;;;;;13.83;11.50;;;;;;;3.44;100.00;101876.13;5038535;28;20436;-43
2023/05/01 02:37:54;;;;;;;17.20;13.77;;;;;;;3.44;100.00;101872.63;5038764;28;20432;-42
2023/05/01 02:40:22;;;;;;;13.63;11.87;;;;;;;3.43;100.00;101868.34;5038584;28;20448;-43
2023/05/01 02:42:52;;;;;;;17.47;12.53;;;;;;;3.41;100.00;101868.44;5037899;28;20432;-44
2023/05/01 02:45:23;;;;;;;12.70;11.43;;;;;;;3.42;100.00;101864.84;5039027;28;20440;-43
2023/05/01 02:47:54;;;;;;;14.37;12.80;;;;;;;3.44;100.00;101860.28;5038880;28;20444;-45
2023/05/01 02:50:23;;;;;;;14.87;11.90;;;;;;;3.43;100.00;101860.44;5027987;28;20463;-42
2023/05/01 02:52:51;;;;;;;12.63;11.33;;;;;;;3.42;100.00;101849.03;5038142;28;20921;-43
2023/05/01 02:55:20;;;;;;;11.83;10.73;;;;;;;3.40;100.00;101845.69;5038370;28;20442;-42
2023/05/01 02:57:50;;;;;;;13.93;12.53;;;;;;;3.39;100.00;101844.00;5038585;28;20440;-42
2023/05/01 03:00:19;;;;;;;14.40;11.30;;;;;;;3.37;100.00;101847.75;5038394;28;20559;-44
2023/05/01 03:02:47;;;;;;;14.50;13.00;;;;;;;3.33;100.00;101826.91;5039439;28;20428;-44
2023/05/01 03:05:15;;;;;;;13.23;11.83;;;;;;;3.29;100.00;101843.91;5039080;28;20436;-48
2023/05/01 03:07:43;;;;;;;19.70;11.60;;;;;;;3.26;100.00;101838.03;5039210;28;20443;-43
2023/05/01 03:10:11;;;;;;;13.80;11.67;;;;;;;3.24;100.00;101826.78;5039323;28;20523;-47
2023/05/01 03:12:40;;;;;;;16.37;12.70;;;;;;;3.22;100.00;101823.44;5039074;28;20436;-41
2023/05/01 03:15:09;;;;;;;15.93;12.00;;;;;;;3.20;100.00;101820.91;5039694;28;20436;-47
2023/05/01 03:17:37;;;;;;;14.67;12.93;;;;;;;3.18;100.00;101817.56;5039219;28;20436;-43
2023/05/01 03:20:06;;;;;;;15.40;13.13;;;;;;;3.16;100.00;101811.59;5038449;28;20479;-45
2023/05/01 03:22:34;;;;;;;14.40;11.40;;;;;;;3.15;100.00;101815.19;5038350;28;20961;-42
2023/05/01 03:25:03;;;;;;;18.00;12.77;;;;;;;3.15;100.00;101815.19;5043413;28;20444;-44
2023/05/01 03:27:30;;;;;;;14.40;12.90;;;;;;;3.13;100.00;101809.22;5050960;28;20447;-48
2023/05/01 03:29:59;;;;;;;17.03;13.60;;;;;;;3.14;100.00;101795.06;5056798;28;20531;-42
2023/05/01 03:32:28;;;;;;;14.63;12.63;;;;;;;3.15;100.00;101795.91;5057175;28;20451;-43
2023/05/01 03:34:56;;;;;;;20.10;13.93;;;;;;;3.14;100.00;101796.84;5057486;28;20435;-45
2023/05/01 03:37:24;;;;;;;15.27;13.67;;;;;;;3.13;100.00;101801.31;5057723;28;20933;-42
2023/05/01 03:39:52;;;;;;;14.27;12.80;;;;;;;3.13;100.00;101792.56;5056635;28;20485;-43
2023/05/01 03:42:20;;;;;;;16.50;12.33;;;;;;;3.13;100.00;101797.81;5056929;28;20479;-42
2023/05/01 03:44:48;;;;;;;13.37;11.97;;;;;;;3.15;100.00;101788.84;5057400;28;20436;-46
2023/05/01 03:47:17;;;;;;;17.17;12.90;;;;;;;3.16;100.00;101784.41;5057214;28;20458;-43
2023/05/01 03:49:45;;;;;;;13.87;12.47;;;;;;;3.19;100.00;101792.06;5056197;28;20455;-43
2023/05/01 03:52:13;;;;;;;15.40;12.03;;;;;;;3.22;100.00;101784.75;5057501;28;21167;-43
2023/05/01 03:54:41;;;;;;;14.43;12.87;;;;;;;3.29;100.00;101782.44;5057140;28;20463;-45
2023/05/01 03:57:08;;;;;;;15.17;13.40;;;;;;;3.34;100.00;101780.28;5057481;28;20438;-45
2023/05/01 03:59:36;;;;;;;15.77;12.40;;;;;;;3.43;100.00;101781.31;5056996;28;20475;-43
2023/05/01 04:02:04;;;;;;;18.13;14.13;;;;;;;3.50;100.00;101782.47;5057383;28;20455;-42
2023/05/01 04:04:33;;;;;;;15.43;13.60;;;;;;;3.58;100.00;101774.78;5057642;28;20440;-45
2023/05/01 04:07:01;;;;;;;18.80;15.13;;;;;;;3.68;100.00;101775.69;5057518;28;20431;-42
2023/05/01 04:09:29;;;;;;;15.27;13.80;;;;;;;3.77;100.00;101772.28;5056776;28;20470;-43
2023/05/01 04:11:57;;;;;;;15.77;13.43;;;;;;;3.86;100.00;101780.28;5056835;28;20530;-43
2023/05/01 04:14:24;;;;;;;13.67;12.17;;;;;;;3.98;100.00;101783.69;5057356;28;20435;-46
2023/05/01 04:16:52;;;;;;;14.97;13.33;;;;;;;4.15;100.00;101771.72;5056353;28;20887;-43
2023/05/01 04:19:20;;;;;;;14.73;13.27;;;;;;;4.29;100.00;101774.88;5055910;28;20475;-42
2023/05/01 04:21:49;;;;;;;14.60;13.10;;;;;;;4.44;100.00;101770.06;5056693;28;20455;-42
2023/05/01 04:24:16;;;;;;;12.93;11.73;;;;;;;4.61;100.00;101772.09;5056482;28;20439;-42
2023/05/01 04:26:44;;;;;;;13.87;12.47;;;;;;;4.76;100.00;101760.19;5056696;28;20941;-42
2023/05/01 04:29:12;;;;;;;13.17;11.60;;;;;;;4.92;100.00;101760.53;5037296;28;20448;-42
2023/05/01 04:31:40;;;;;;;13.00;11.70;;;;;;;5.25;100.00;101769.06;5035536;28;20818;-45
2023/05/01 04:34:08;;;;;;;17.00;13.33;;;;;;;5.60;100.00;101764.06;5035665;28;20432;-45
2023/05/01 04:36:35;;;;;;;11.93;10.93;;;;;;;5.88;100.00;101755.31;5035754;28;20440;-43
2023/05/01 04:39:05;;;;;;;12.97;11.70;;;;;;;6.34;100.00;101756.31;5035196;28;20548;-48
2023/05/01 04:41:32;;;;;;;11.60;10.60;;;;;;;6.78;100.00;101758.22;5035768;28;20452;-45
2023/05/01 04:44:00;;;;;;;13.10;11.80;;;;;;;7.02;100.00;101745.25;5035587;28;21106;-43
2023/05/01 04:46:27;;;;;;;12.60;11.60;;;;;;;7.31;100.00;101745.06;5035665;28;20499;-43
2023/05/01 04:48:55;;;;;;;11.33;10.23;;;;;;;7.57;100.00;101748.63;5035005;28;20491;-43
2023/05/01 04:51:23;;;;;;;10.90;9.93;;;;;;;7.94;100.00;101747.59;5035462;28;20534;-46
2023/05/01 04:53:50;;;;;;;10.20;9.17;;;;;;;8.21;100.00;101739.47;5035871;28;20436;-42
2023/05/01 04:56:20;;;;;;;10.13;9.13;;;;;;;8.78;100.00;101736.13;5036161;28;20440;-43
2023/05/01 04:58:47;;;;;;;10.57;8.90;;;;;;;9.51;100.00;101733.63;5035952;28;20460;-46
2023/05/01 05:01:15;;;;;;;8.53;7.73;;;;;;;9.98;100.00;101739.09;5036346;28;20537;-46
2023/05/01 05:03:43;;;;;;;9.50;8.70;;;;;;;10.61;100.00;101732.97;5036573;28;20463;-45
2023/05/01 05:06:13;;;;;;;8.53;7.83;;;;;;;11.36;100.00;101734.91;5038348;28;20930;-44
2023/05/01 05:08:41;;;;;;;8.33;7.57;;;;;;;12.19;100.00;101737.56;5040163;28;20467;-44
2023/05/01 05:11:09;;;;;;;10.50;8.70;;;;;;;12.74;100.00;101724.56;5040110;28;20448;-44
2023/05/01 05:13:38;;;;;;;8.87;8.07;;;;;;;13.05;100.00;101723.47;5039668;28;20511;-44
2023/05/01 05:16:07;;;;;;;9.10;8.30;;;;;;;13.59;100.00;101718.50;5039491;28;20859;-45
2023/05/01 05:18:34;;;;;;;10.77;8.30;;;;;;;14.03;90.63;101726.28;5038935;28;21067;-46
2023/05/01 05:21:03;;;;;;;11.20;9.00;;;;;;;14.53;83.51;101726.00;5038529;28;20475;-45
2023/05/01 05:23:31;;;;;;;9.40;8.47;;;;;;;15.05;82.69;101724.59;5038616;28;20434;-45
2023/05/01 05:26:00;;;;;;;8.77;7.80;;;;;;;15.65;73.06;101726.41;5050354;28;20431;-45
2023/05/01 05:28:28;;;;;;;8.13;7.53;;;;;;;16.05;69.21;101725.34;5049322;28;20458;-45
2023/05/01 05:30:57;;;;;;;9.03;8.17;;;;;;;16.65;70.57;101720.69;5057156;28;20524;-43
2023/05/01 05:33:25;;;;;;;7.87;7.23;;;;;;;16.75;64.75;101724.59;5056998;28;20430;-44
2023/05/01 05:35:52;;;;;;;8.70;7.90;;;;;;;16.97;59.43;101725.94;5056465;28;20431;-44
2023/05/01 05:38:20;;;;;;;8.10;7.50;;;;;;;17.24;60.59;101718.53;5056173;28;20454;-44
2023/05/01 05:40:48;;;;;;;7.93;7.30;;;;;;;17.50;62.55;101723.75;5056551;28;20482;-44
2023/05/01 05:43:15;;;;;;;7.20;6.57;;;;;;;17.57;60.24;101716.47;5056471;28;20435;-44
2023/05/01 05:45:43;;;;;;;8.07;7.37;;;;;;;17.73;57.93;101711.56;5056700;28;20434;-45
2023/05/01 05:48:12;;;;;;;6.80;6.30;;;;;;;17.76;58.81;101716.53;5056712;28;20492;-47
2023/05/01 05:50:40;;;;;;;7.13;6.63;;;;;;;17.76;54.87;101711.13;5056535;28;20454;-44
2023/05/01 05:53:08;;;;;;;6.90;6.40;;;;;;;17.75;57.36;101710.31;5056412;28;20439;-46
2023/05/01 05:55:36;;;;;;;10.20;7.07;;;;;;;17.56;53.63;101705.91;5051477;28;20435;-44
2023/05/01 05:58:04;;;;;;;7.00;6.50;;;;;;;17.66;53.98;101712.47;5052957;28;20430;-44
2023/05/01 06:00:31;;;;;;;8.80;7.13;;;;;;;17.75;53.93;101704.09;5055902;28;21011;-44
2023/05/01 06:02:59;;;;;;;6.83;6.37;;;;;;;17.92;52.63;101705.19;5056177;28;20437;-44
2023/05/01 06:05:28;;;;;;;7.17;6.57;;;;;;;17.95;53.40;101700.16;5056161;28;20437;-44
2023/05/01 06:07:56;;;;;;;7.50;6.90;;;;;;;18.14;51.03;101696.47;5054962;28;20437;-41
2023/05/01 06:10:24;;;;;;;7.77;7.07;;;;;;;18.44;52.02;101691.16;5055740;28;20454;-43
2023/05/01 06:12:51;;;;;;;8.87;6.70;;;;;;;18.65;52.06;101690.72;5055709;28;20426;-45
2023/05/01 06:15:39;;;;;;;7.40;6.80;;;;;;;18.67;48.77;101683.22;5053616;28;20489;-42
2023/05/01 06:18:07;;;;;;;6.90;6.03;;;;;;;18.23;48.19;101681.63;5053743;28;20488;-41
2023/05/01 06:20:37;;;;;;;6.60;6.20;;;;;;;18.01;50.91;101682.28;5054802;28;20477;-44
2023/05/01 06:23:07;;;;;;;6.80;6.30;;;;;;;17.70;49.34;101677.78;5052187;28;20423;-44
2023/05/01 06:25:35;;;;;;;7.27;6.67;;;;;;;17.29;49.21;101686.38;5053119;28;20439;-41
2023/05/01 06:28:03;;;;;;;7.13;6.63;;;;;;;17.33;51.20;101689.44;5045969;28;20515;-46
2023/05/01 06:30:30;;;;;;;7.10;6.60;;;;;;;17.11;51.06;101683.59;5032748;28;20527;-42
2023/05/01 06:32:58;;;;;;;6.40;5.90;;;;;;;17.25;49.74;101689.69;5033039;28;20435;-41
2023/05/01 06:35:26;;;;;;;10.00;7.13;;;;;;;17.10;49.27;101681.91;5034977;28;20420;-41
2023/05/01 06:37:55;;;;;;;8.10;5.97;;;;;;;17.25;52.11;101692.41;5034075;28;20428;-46
2023/05/01 06:40:23;;;;;;;6.80;6.20;;;;;;;17.37;48.90;101685.25;5034928;28;20479;-41
2023/05/01 06:42:51;;;;;;;6.80;6.10;;;;;;;17.32;47.92;101677.84;5037008;28;20525;-41
2023/05/01 06:45:19;;;;;;;7.43;6.67;;;;;;;17.32;48.95;101679.72;5052810;28;20434;-42
2023/05/01 06:47:47;;;;;;;7.47;6.77;;;;;;;17.30;47.09;101673.69;5053832;28;20470;-42
2023/05/01 06:50:15;;;;;;;7.33;6.63;;;;;;;17.49;48.65;101673.56;5051115;28;20471;-44
2023/05/01 06:52:44;;;;;;;8.23;6.10;;;;;;;17.50;48.36;101664.41;5053380;28;20801;-44
2023/05/01 06:55:13;;;;;;;6.60;6.10;;;;;;;17.85;49.06;101664.78;5054506;28;20447;-42
2023/05/01 06:57:41;;;;;;;6.53;5.97;;;;;;;17.83;48.15;101666.06;5055477;28;20457;-42
2023/05/01 07:00:10;;;;;;;7.73;6.70;;;;;;;17.93;46.48;101656.38;5054440;28;21034;-41
2023/05/01 07:02:39;;;;;;;10.33;6.40;;;;;;;18.07;46.95;101655.19;5055213;28;20503;-44
2023/05/01 07:05:07;;;;;;;7.37;6.67;;;;;;;18.31;48.29;101652.69;5053538;28;20431;-42
2023/05/01 07:07:35;;;;;;;7.60;7.00;;;;;;;18.98;47.46;101647.03;5053033;28;20445;-44
2023/05/01 07:10:07;;;;;;;7.23;6.53;;;;;;;19.59;46.66;101648.63;5052992;28;20488;-47
2023/05/01 07:12:36;;;;;;;6.50;6.10;;;;;;;20.02;47.75;101643.66;5052403;28;20762;-42
2023/05/01 07:15:05;;;;;;;6.73;6.13;;;;;;;20.04;43.83;101635.31;5053211;28;20438;-45
2023/05/01 07:17:33;;;;;;;6.63;6.00;;;;;;;19.99;40.60;101638.72;5054249;28;20464;-46
2023/05/01 07:20:01;;;;;;;6.57;6.13;;;;;;;20.34;45.29;101635.97;5044541;28;21018;-42
2023/05/01 07:22:28;;;;;;;6.77;5.87;;;;;;;20.17;42.31;101625.03;5054884;28;20513;-41
2023/05/01 07:24:56;;;;;;;6.60;6.10;;;;;;;20.22;42.52;101625.16;5054330;28;20435;-46
2023/05/01 07:27:24;;;;;;;7.30;6.57;;;;;;;20.21;40.63;101619.97;5052276;28;20602;-42
2023/05/01 07:29:55;;;;;;;5.70;5.40;;;;;;;20.43;42.66;101616.41;5034457;28;20551;-43
2023/05/01 07:32:24;;;;;;;6.23;5.80;;;;;;;20.65;43.03;101613.88;5034918;28;20448;-45
2023/05/01 07:34:52;;;;;;;9.30;6.83;;;;;;;20.62;40.10;101616.22;5034721;28;20436;-46
2023/05/01 07:37:19;;;;;;;6.67;6.07;;;;;;;20.37;41.12;101621.97;5034242;28;20779;-43
2023/05/01 07:39:47;;;;;;;7.33;6.67;;;;;;;20.22;40.79;101627.06;5033628;28;20517;-44
2023/05/01 07:42:15;;;;;;;7.37;6.47;;;;;;;19.63;41.47;101622.72;5033069;28;20475;-44
2023/05/01 07:44:43;;;;;;;6.20;5.70;;;;;;;19.10;41.93;101623.56;5038701;28;20434;-41
2023/05/01 07:47:13;;;;;;;6.70;6.10;;;;;;;18.87;42.42;101620.81;5052689;28;20940;-42
2023/05/01 07:49:42;;;;;;;6.60;6.10;;;;;;;18.35;42.38;101607.94;5051174;28;20482;-42
2023/05/01 07:52:10;;;;;;;6.30;5.80;;;;;;;18.15;44.03;101602.81;5048990;28;20463;-43
2023/05/01 07:54:39;;;;;;;7.50;6.20;;;;;;;18.09;44.15;101607.22;5051967;28;20423;-43
2023/05/01 07:57:10;;;;;;;8.40;6.33;;;;;;;18.26;44.97;101604.75;5051689;28;20697;-43
2023/05/01 07:59:39;;;;;;;6.53;6.00;;;;;;;18.28;43.92;101599.13;5051681;28;20465;-43
2023/05/01 08:02:07;;;;;;;7.00;6.30;;;;;;;18.04;44.95;101593.56;5052125;28;20467;-43
2023/05/01 08:04:36;;;;;;;6.80;6.10;;;;;;;18.36;45.21;101598.81;5052691;28;20426;-43
2023/05/01 08:07:04;;;;;;;8.43;5.73;;;;;;;18.54;44.55;101596.13;5050809;28;20766;-46
2023/05/01 08:09:32;;;;;;;5.70;5.30;;;;;;;18.63;43.61;101583.94;5049709;28;20802;-50
2023/05/01 08:12:02;;;;;;;8.30;6.03;;;;;;;18.63;43.63;101589.34;5052797;28;20454;-46
2023/05/01 08:14:30;;;;;;;6.10;5.60;;;;;;;18.75;43.16;101579.41;5054373;28;20475;-43
2023/05/01 08:16:58;;;;;;;6.10;5.50;;;;;;;18.98;43.23;101587.56;5053774;28;20511;-44
2023/05/01 08:19:27;;;;;;;6.63;6.03;;;;;;;19.03;42.41;101571.47;5052327;28;20466;-44
2023/05/01 08:21:56;;;;;;;8.87;6.10;;;;;;;18.92;42.57;101582.25;5052591;28;20969;-44
2023/05/01 08:24:24;;;;;;;6.67;6.07;;;;;;;18.65;41.68;101579.13;5053018;28;20489;-45
2023/05/01 08:26:52;;;;;;;6.40;5.80;;;;;;;18.73;42.67;101568.81;5052150;28;20427;-44
2023/05/01 08:29:20;;;;;;;6.67;6.17;;;;;;;18.85;43.19;101571.53;5032093;28;20459;-43
2023/05/01 08:31:48;;;;;;;5.13;4.73;;;;;;;18.94;41.50;101564.75;5031431;28;20443;-44
2023/05/01 08:34:16;;;;;;;7.70;6.17;;;;;;;18.99;41.47;101562.19;5031735;28;20833;-43
2023/05/01 08:36:45;;;;;;;5.97;5.47;;;;;;;19.06;41.82;101570.19;5032477;28;20439;-43
2023/05/01 08:39:14;;;;;;;8.77;5.10;;;;;;;19.10;41.26;101563.25;5031184;28;20493;-47
2023/05/01 08:41:45;;;;;;;6.10;5.50;;;;;;;19.12;42.58;101561.97;5031676;28;21030;-43
2023/05/01 08:44:14;;;;;;;5.73;5.33;;;;;;;19.40;41.25;101564.03;5032442;28;20489;-45
2023/05/01 08:46:47;;;;;;;9.10;5.60;;;;;;;19.43;39.60;101563.56;5032428;28;20519;-45
2023/05/01 08:49:17;;;;;;;9.40;5.67;;;;;;;19.13;40.54;101562.78;5030853;28;21072;-44
2023/05/01 08:51:47;;;;;;;5.97;5.40;;;;;;;19.28;39.01;101561.28;5031894;28;20479;-44
2023/05/01 08:54:19;;;;;;;5.60;5.20;;;;;;;19.34;38.88;101563.06;5031691;28;20437;-44
2023/05/01 08:56:48;;;;;;;8.70;5.47;;;;;;;19.22;39.39;101550.59;5032545;28;20471;-45
2023/05/01 08:59:18;;;;;;;6.23;5.83;;;;;;;19.26;40.00;101559.88;5033347;28;20431;-44
2023/05/01 09:01:46;;;;;;;5.70;5.30;;;;;;;19.24;39.50;101553.88;5034545;28;20533;-46
2023/05/01 09:04:15;;;;;;;7.20;6.57;;;;;;;19.20;39.35;101556.22;5034321;28;20995;-46
2023/05/01 09:06:44;;;;;;;5.40;4.90;;;;;;;19.19;38.40;101554.59;5034072;28;20440;-45
2023/05/01 09:09:11;;;;;;;5.87;5.33;;;;;;;19.21;38.63;101549.75;5032987;28;20430;-45
2023/05/01 09:11:44;;;;;;;6.73;5.20;;;;;;;19.23;39.02;101546.84;5033912;28;20451;-50
2023/05/01 09:14:12;;;;;;;12.00;6.57;;;;;;;19.23;38.81;101544.13;5034672;28;20926;-46
2023/05/01 09:16:40;;;;;;;7.73;6.37;;;;;;;19.18;39.32;101547.53;5033982;28;20431;-45
2023/05/01 09:19:08;;;;;;;5.97;5.47;;;;;;;19.42;39.96;101544.84;5031322;28;20436;-47
2023/05/01 09:21:36;;;;;;;6.37;5.70;;;;;;;19.71;38.41;101543.91;5034437;28;20456;-51
2023/05/01 09:24:04;;;;;;;6.27;5.50;;;;;;;19.67;37.46;101535.44;5035045;28;20441;-47
2023/05/01 09:26:33;;;;;;;7.13;4.60;;;;;;;19.44;37.44;101537.34;5050045;28;20439;-47
2023/05/01 09:29:02;;;;;;;7.73;5.27;;;;;;;19.55;38.15;101531.09;5036973;28;20436;-45
2023/05/01 09:31:31;;;;;;;5.90;5.37;;;;;;;19.61;37.68;101528.28;5033272;28;20452;-49
2023/05/01 09:34:01;;;;;;;5.10;4.70;;;;;;;19.71;37.81;101520.34;5034666;28;20436;-46
2023/05/01 09:36:30;;;;;;;8.17;5.43;;;;;;;19.64;38.55;101529.69;5033814;28;20424;-48
2023/05/01 09:38:59;;;;;;;10.80;5.27;;;;;;;19.85;37.91;101518.22;5034475;28;20436;-46
2023/05/01 09:41:27;;;;;;;4.97;4.57;;;;;;;19.83;36.83;101520.38;5034220;28;21044;-44
2023/05/01 09:43:56;;;;;;;6.60;5.67;;;;;;;19.94;37.10;101521.38;5034181;28;20582;-48
2023/05/01 09:46:26;;;;;;;7.47;5.37;;;;;;;19.96;35.92;101522.78;5033808;28;21102;-48
2023/05/01 09:48:57;;;;;;;6.10;5.50;;;;;;;19.99;37.16;101516.91;5033834;28;21004;-47
2023/05/01 09:51:27;;;;;;;5.30;4.80;;;;;;;19.71;37.34;101520.34;5033536;28;20495;-44
2023/05/01 09:53:56;;;;;;;6.03;5.17;;;;;;;19.71;37.01;101516.84;5036873;28;20502;-46
2023/05/01 09:56:26;;;;;;;5.83;5.37;;;;;;;19.57;37.47;101510.03;5038021;28;20431;-47
2023/05/01 09:58:55;;;;;;;8.43;5.70;;;;;;;19.68;36.42;101514.63;5038002;28;20926;-46
2023/05/01 10:01:40;;;;;;;6.83;5.87;;;;;;;19.58;37.00;101499.00;5037606;28;20447;-49
2023/05/01 10:04:08;;;;;;;7.90;5.90;;;;;;;19.87;37.08;101491.75;5038492;28;20529;-48
2023/05/01 10:06:36;;;;;;;7.80;5.80;;;;;;;19.99;37.40;101491.69;5037797;28;20538;-45
2023/05/01 10:09:06;;;;;;;5.30;4.83;;;;;;;20.16;37.67;101490.69;5037220;28;20436;-46
2023/05/01 10:11:48;;;;;;;6.80;4.97;;;;;;;20.24;36.42;101479.50;5036939;28;20461;-47
2023/05/01 10:14:16;;;;;;;5.17;4.77;;;;;;;20.21;35.60;101477.28;5036750;28;20420;-47
2023/05/01 10:16:46;;;;;;;5.77;5.27;;;;;;;20.38;36.49;101478.16;5037663;28;20427;-44
2023/05/01 10:19:16;;;;;;;7.50;5.47;;;;;;;20.40;36.66;101481.44;5037291;28;20821;-46
2023/05/01 10:21:44;;;;;;;6.13;5.60;;;;;;;20.35;36.20;101481.34;5036798;28;21192;-44
2023/05/01 10:24:13;;;;;;;5.90;5.43;;;;;;;20.53;36.28;101474.06;5036997;28;20467;-44
2023/05/01 10:26:42;;;;;;;5.77;5.37;;;;;;;20.65;36.14;101478.34;5054705;28;21031;-47
2023/05/01 10:29:10;;;;;;;6.17;5.60;;;;;;;20.65;35.38;101467.50;5056107;28;20427;-45
2023/05/01 10:31:38;;;;;;;6.67;5.43;;;;;;;20.54;35.24;101463.00;5056411;28;20469;-45
2023/05/01 10:34:11;;;;;;;6.27;4.70;;;;;;;20.66;34.83;101461.03;5056694;28;20426;-43
2023/05/01 10:36:44;;;;;;;6.30;5.33;;;;;;;20.70;36.31;101461.34;5057006;28;20434;-44
2023/05/01 10:39:30;;;;;;;5.03;4.60;;;;;;;20.93;34.42;101453.06;5057545;28;20438;-44
2023/05/01 10:42:04;;;;;;;6.37;5.77;;;;;;;21.06;34.84;101451.88;5056722;28;20450;-45
2023/05/01 10:44:33;;;;;;;5.20;4.70;;;;;;;20.93;35.54;101453.06;5056559;28;21027;-48
2023/05/01 10:47:36;;;;;;;6.00;5.20;;;;;;;21.07;35.73;101453.53;5056802;28;20492;-46
2023/05/01 10:50:07;;;;;;;6.30;5.50;;;;;;;21.38;36.39;101447.50;5052900;28;20466;-46
2023/05/01 10:53:13;;;;;;;5.87;5.47;;;;;;;21.30;35.00;101443.31;5056311;28;20439;-44
2023/05/01 10:55:42;;;;;;;6.30;5.13;;;;;;;21.18;34.42;101439.06;5056876;28;20427;-46
2023/05/01 10:58:10;;;;;;;5.00;4.60;;;;;;;21.01;34.85;101436.38;5056507;28;20434;-49
2023/05/01 11:00:38;;;;;;;5.37;4.87;;;;;;;21.27;35.51;101424.84;5055950;28;20466;-46
2023/05/01 11:03:37;;;;;;;10.23;5.77;;;;;;;21.28;34.59;101429.19;5056395;28;20500;-45
2023/05/01 11:06:07;;;;;;;6.60;6.03;;;;;;;21.33;36.07;101425.72;5013881;28;20487;-46
2023/05/01 11:08:37;;;;;;;6.07;5.07;;;;;;;21.46;33.72;101422.66;5047362;28;20446;-44
2023/05/01 11:11:50;;;;;;;7.50;5.60;;;;;;;21.33;32.95;101418.41;5055440;28;20532;-44
2023/05/01 11:14:18;;;;;;;6.60;5.90;;;;;;;21.56;33.90;101398.38;5033857;28;20770;-49
2023/05/01 11:16:48;;;;;;;9.07;5.70;;;;;;;21.89;34.62;101405.56;5053692;28;20434;-45
2023/05/01 11:19:49;;;;;;;5.40;5.00;;;;;;;21.98;34.11;101406.75;5053473;28;20435;-48
2023/05/01 11:22:19;;;;;;;7.10;5.30;;;;;;;22.00;34.22;101402.69;5008833;28;20452;-43
2023/05/01 11:24:47;;;;;;;5.80;5.30;;;;;;;21.80;33.44;101397.00;5011119;28;20484;-49
2023/05/01 11:27:15;;;;;;;6.53;5.93;;;;;;;21.86;34.40;101395.19;5029670;28;20431;-44
2023/05/01 11:29:47;;;;;;;5.40;4.70;;;;;;;21.89;34.62;101395.50;5052941;28;20458;-45